Time;durP1;ratioP1;P1;durP2;ratioP2;P2;SDS_P1;SDS_P2;PMS_P1;PMS_P2;Temp;Humidity;BMP_temperature;BMP_pressure;BME280_temperature;BME280_humidity;BME280_pressure;Samples;Min_cycle;Max_cycle;Signal;HPM_P1;HPM_P2
2023/12/22 00:02:13;;;;;;;;;;;;;;;22.06;25.93;96328.97;4997324;28;834;-74
2023/12/22 00:04:38;;;;;;;;;;;;;;;22.58;25.18;96330.09;4961656;28;1262;-76
2023/12/22 00:07:04;;;;;;;;;;;;;;;22.82;24.67;96338.47;4963077;28;897;-75
2023/12/22 00:09:29;;;;;;;;;;;;;;;22.98;24.58;96327.88;4981069;28;1211;-75
2023/12/22 00:11:55;;;;;;;;;;;;;;;23.10;24.28;96326.75;4997343;28;843;-75
2023/12/22 00:14:20;;;;;;;;;;;;;;;22.70;24.79;96333.91;4997281;28;908;-75
2023/12/22 00:16:46;;;;;;;;;;;;;;;22.63;24.80;96325.78;4981140;28;1637;-75
2023/12/22 00:19:12;;;;;;;;;;;;;;;22.16;25.31;96327.63;4997284;28;1906;-75
2023/12/22 00:21:37;;;;;;;;;;;;;;;21.65;26.28;96322.28;4997062;28;911;-75
2023/12/22 00:24:03;;;;;;;;;;;;;;;22.06;25.81;96314.81;4997004;28;1080;-75
2023/12/22 00:26:28;;;;;;;;;;;;;;;21.61;26.25;96316.84;4997018;28;1303;-75
2023/12/22 00:28:54;;;;;;;;;;;;;;;22.27;25.40;96304.34;4996571;28;932;-75
2023/12/22 00:31:19;;;;;;;;;;;;;;;22.55;25.02;96301.97;4980593;28;827;-75
2023/12/22 00:33:45;;;;;;;;;;;;;;;22.77;24.60;96302.28;4981067;28;1088;-75
2023/12/22 00:36:10;;;;;;;;;;;;;;;22.93;24.66;96303.06;5025342;28;985;-75
2023/12/22 00:38:36;;;;;;;;;;;;;;;23.12;24.25;96290.16;5036103;28;731;-75
2023/12/22 00:41:01;;;;;;;;;;;;;;;23.05;24.41;96293.41;5030454;28;1910;-75
2023/12/22 00:43:27;;;;;;;;;;;;;;;22.60;24.74;96287.88;5019859;28;850;-75
2023/12/22 00:45:52;;;;;;;;;;;;;;;21.79;25.81;96296.84;5036140;28;953;-75
2023/12/22 00:48:18;;;;;;;;;;;;;;;22.31;25.26;96291.56;5035907;28;1251;-75
2023/12/22 00:50:43;;;;;;;;;;;;;;;22.67;24.90;96292.34;5035786;28;787;-75
2023/12/22 00:53:09;;;;;;;;;;;;;;;22.60;25.11;96292.78;5019629;28;861;-75
2023/12/22 00:55:35;;;;;;;;;;;;;;;22.97;24.51;96286.63;5035658;28;799;-75
2023/12/22 00:58:00;;;;;;;;;;;;;;;23.01;24.56;96284.34;5035907;28;767;-75
2023/12/22 01:00:26;;;;;;;;;;;;;;;23.04;24.25;96286.19;5003142;28;1987;-75
2023/12/22 01:02:51;;;;;;;;;;;;;;;21.88;25.66;96295.19;5019405;28;796;-75
2023/12/22 01:05:17;;;;;;;;;;;;;;;22.49;24.86;96289.78;5019164;28;826;-76
2023/12/22 01:07:42;;;;;;;;;;;;;;;22.32;24.90;96278.94;5019385;28;830;-75
2023/12/22 01:10:09;;;;;;;;;;;;;;;22.21;25.38;96267.44;5035711;28;804;-75
2023/12/22 01:12:34;;;;;;;;;;;;;;;22.18;25.65;96268.44;4979806;28;1003;-75
2023/12/22 01:15:00;;;;;;;;;;;;;;;22.25;25.34;96265.19;4996189;28;1118;-75
2023/12/22 01:17:25;;;;;;;;;;;;;;;22.84;24.80;96262.16;4996153;28;755;-75
2023/12/22 01:19:51;;;;;;;;;;;;;;;22.92;24.68;96250.44;4979508;28;1968;-75
2023/12/22 01:22:16;;;;;;;;;;;;;;;22.90;24.80;96248.13;4963713;28;1136;-75
2023/12/22 01:24:43;;;;;;;;;;;;;;;23.22;24.24;96237.66;4979558;28;1099;-75
2023/12/22 01:27:09;;;;;;;;;;;;;;;22.77;24.66;96222.91;4996216;28;760;-75
2023/12/22 01:29:35;;;;;;;;;;;;;;;22.61;24.92;96223.47;4976061;28;1006;-75
2023/12/22 01:32:00;;;;;;;;;;;;;;;22.30;25.11;96212.72;4976587;28;825;-75
2023/12/22 01:34:26;;;;;;;;;;;;;;;21.72;26.20;96209.47;4903015;29;1209;-75
2023/12/22 01:36:51;;;;;;;;;;;;;;;22.65;24.82;96204.19;4887721;29;1125;-75
2023/12/22 01:39:17;;;;;;;;;;;;;;;22.70;24.76;96200.66;4918459;29;1903;-74
2023/12/22 01:41:42;;;;;;;;;;;;;;;22.97;24.47;96195.84;4902830;29;895;-74
2023/12/22 01:44:08;;;;;;;;;;;;;;;23.19;24.28;96195.31;4880660;29;993;-75
2023/12/22 01:46:34;;;;;;;;;;;;;;;23.23;24.18;96193.81;4880918;29;1106;-75
2023/12/22 01:49:01;;;;;;;;;;;;;;;22.31;25.33;96186.72;4846976;29;1378;-75
2023/12/22 01:51:26;;;;;;;;;;;;;;;22.22;25.24;96189.66;4865942;29;987;-75
2023/12/22 01:53:52;;;;;;;;;;;;;;;21.79;26.14;96182.81;4865249;29;959;-75
2023/12/22 01:56:18;;;;;;;;;;;;;;;22.42;25.40;96177.59;4850045;29;1350;-75
2023/12/22 01:58:43;;;;;;;;;;;;;;;22.79;24.67;96174.97;4865106;29;1907;-75
2023/12/22 02:01:17;;;;;;;;;;;;;;;22.86;24.74;96177.41;4881399;29;907;-75
2023/12/22 02:03:43;;;;;;;;;;;;;;;22.97;24.60;96176.00;4865363;29;863;-75
2023/12/22 02:06:08;;;;;;;;;;;;;;;22.15;25.60;96167.44;4894610;29;1125;-75
2023/12/22 02:08:34;;;;;;;;;;;;;;;22.54;25.07;96164.38;4921208;29;922;-74
2023/12/22 02:10:59;;;;;;;;;;;;;;;22.24;25.03;96158.81;4905605;29;839;-75
2023/12/22 02:13:25;;;;;;;;;;;;;;;21.60;26.30;96153.94;4921706;29;1213;-75
2023/12/22 02:15:52;;;;;;;;;;;;;;;22.65;25.23;96149.56;4952042;28;1332;-75
2023/12/22 02:18:20;;;;;;;;;;;;;;;23.02;24.41;96141.25;4959293;28;885;-75
2023/12/22 02:20:45;;;;;;;;;;;;;;;22.83;24.91;96140.75;4959321;28;1906;-75
2023/12/22 02:23:11;;;;;;;;;;;;;;;22.70;24.79;96143.94;4975451;28;830;-75
2023/12/22 02:25:36;;;;;;;;;;;;;;;21.83;25.80;96127.56;4969470;28;828;-75
2023/12/22 02:28:05;;;;;;;;;;;;;;;22.23;25.08;96122.50;5001377;28;1120;-75
2023/12/22 02:30:32;;;;;;;;;;;;;;;21.93;25.94;96124.59;5017664;28;759;-75
2023/12/22 02:33:01;;;;;;;;;;;;;;;22.57;25.10;96120.84;5001495;28;1503;-75
2023/12/22 02:35:28;;;;;;;;;;;;;;;22.84;24.88;96114.72;5017787;28;1058;-75
2023/12/22 02:37:53;;;;;;;;;;;;;;;22.99;24.63;96108.97;5017631;28;727;-75
2023/12/22 02:40:19;;;;;;;;;;;;;;;22.90;24.66;96100.66;5017765;28;1983;-75
2023/12/22 02:42:45;;;;;;;;;;;;;;;22.39;25.21;96104.16;5017376;28;747;-75
2023/12/22 02:45:14;;;;;;;;;;;;;;;22.28;25.46;96097.06;5017800;28;840;-75
2023/12/22 02:47:39;;;;;;;;;;;;;;;21.97;25.69;96105.38;5017473;28;1124;-75
2023/12/22 02:50:05;;;;;;;;;;;;;;;22.57;25.37;96095.34;5034127;28;877;-75
2023/12/22 02:52:32;;;;;;;;;;;;;;;22.84;24.50;96103.38;5017038;28;892;-75
2023/12/22 02:54:57;;;;;;;;;;;;;;;23.12;24.38;96100.09;5034941;28;1115;-75
2023/12/22 02:57:23;;;;;;;;;;;;;;;22.95;24.41;96094.25;5034807;28;787;-75
2023/12/22 02:59:48;;;;;;;;;;;;;;;22.39;25.15;96089.97;5034555;28;1906;-75
2023/12/22 03:02:14;;;;;;;;;;;;;;;22.38;25.13;96088.41;5018570;28;1256;-75
2023/12/22 03:04:40;;;;;;;;;;;;;;;22.21;25.48;96094.63;5034776;28;767;-75
2023/12/22 03:07:05;;;;;;;;;;;;;;;22.51;25.01;96081.09;5034984;28;740;-75
2023/12/22 03:09:32;;;;;;;;;;;;;;;22.66;24.77;96075.34;5035999;28;763;-75
2023/12/22 03:12:01;;;;;;;;;;;;;;;22.99;24.69;96071.31;5036352;28;763;-75
2023/12/22 03:14:30;;;;;;;;;;;;;;;22.73;24.91;96074.13;5013575;28;872;-75
2023/12/22 03:16:56;;;;;;;;;;;;;;;22.69;24.69;96056.53;4997875;28;853;-75
2023/12/22 03:19:22;;;;;;;;;;;;;;;22.03;25.60;96055.25;4997369;28;1985;-75
2023/12/22 03:21:48;;;;;;;;;;;;;;;21.96;25.90;96055.66;4997462;28;1260;-75
2023/12/22 03:24:13;;;;;;;;;;;;;;;21.94;26.03;96058.19;4997364;28;842;-75
2023/12/22 03:26:39;;;;;;;;;;;;;;;21.85;26.03;96037.22;4997430;28;799;-75
2023/12/22 03:29:05;;;;;;;;;;;;;;;22.27;25.45;96041.66;5013780;28;920;-75
2023/12/22 03:31:30;;;;;;;;;;;;;;;22.23;25.83;96037.50;4997874;28;1245;-75
2023/12/22 03:33:56;;;;;;;;;;;;;;;22.47;25.22;96045.75;4974235;28;1008;-75
2023/12/22 03:36:21;;;;;;;;;;;;;;;22.78;24.77;96042.22;4958451;28;805;-75
2023/12/22 03:38:47;;;;;;;;;;;;;;;23.02;24.48;96033.47;4958453;28;1986;-75
2023/12/22 03:41:12;;;;;;;;;;;;;;;23.14;24.26;96037.94;4958854;28;891;-75
2023/12/22 03:43:38;;;;;;;;;;;;;;;22.99;24.25;96034.44;4958915;28;1091;-75
2023/12/22 03:46:03;;;;;;;;;;;;;;;22.94;24.65;96032.34;4989779;28;1645;-75
2023/12/22 03:48:29;;;;;;;;;;;;;;;22.68;24.93;96027.41;4978172;28;1197;-75
2023/12/22 03:50:55;;;;;;;;;;;;;;;22.60;24.94;96020.66;4977496;28;913;-75
2023/12/22 03:53:20;;;;;;;;;;;;;;;22.55;25.16;96007.97;4977850;28;1125;-75
2023/12/22 03:55:46;;;;;;;;;;;;;;;22.40;25.49;96018.63;4958307;28;946;-75
2023/12/22 03:58:11;;;;;;;;;;;;;;;21.89;26.08;96016.44;4958213;28;788;-75
2023/12/22 04:00:37;;;;;;;;;;;;;;;21.87;25.92;96033.94;4941965;28;1915;-75
2023/12/22 04:03:03;;;;;;;;;;;;;;;22.31;25.44;96027.28;4943048;28;1120;-75
2023/12/22 04:05:28;;;;;;;;;;;;;;;22.59;25.04;96024.78;4992497;28;823;-75
2023/12/22 04:07:54;;;;;;;;;;;;;;;22.84;24.90;96012.63;4997676;28;790;-76
2023/12/22 04:10:19;;;;;;;;;;;;;;;23.07;24.54;96021.38;4981224;28;1212;-75
2023/12/22 04:12:45;;;;;;;;;;;;;;;23.04;24.45;96025.22;4958071;29;846;-75
2023/12/22 04:15:10;;;;;;;;;;;;;;;22.74;24.85;96024.63;4958351;29;901;-76
2023/12/22 04:17:36;;;;;;;;;;;;;;;22.30;25.39;96025.72;4938858;29;899;-75
2023/12/22 04:20:02;;;;;;;;;;;;;;;21.13;26.94;96028.41;4939083;29;1911;-75
2023/12/22 04:22:27;;;;;;;;;;;;;;;21.62;26.68;96024.06;4955344;29;774;-75
2023/12/22 04:24:53;;;;;;;;;;;;;;;22.60;25.17;96015.00;4939208;29;931;-75
2023/12/22 04:27:18;;;;;;;;;;;;;;;22.81;24.99;96013.66;4938906;29;1131;-75
2023/12/22 04:29:44;;;;;;;;;;;;;;;23.16;24.46;96014.72;4923280;29;794;-75
2023/12/22 04:32:09;;;;;;;;;;;;;;;23.28;24.01;96008.66;4956562;29;738;-75
2023/12/22 04:34:35;;;;;;;;;;;;;;;22.72;24.82;96013.03;4958506;28;935;-75
2023/12/22 04:37:00;;;;;;;;;;;;;;;22.58;25.05;96012.63;4958400;29;863;-75
2023/12/22 04:39:26;;;;;;;;;;;;;;;22.26;25.45;96014.59;4958541;28;1985;-75
2023/12/22 04:41:51;;;;;;;;;;;;;;;22.30;25.20;96009.50;4958105;29;1170;-76
2023/12/22 04:44:17;;;;;;;;;;;;;;;21.79;26.09;95999.56;4957916;29;970;-75
2023/12/22 04:46:42;;;;;;;;;;;;;;;22.31;25.67;95996.88;4973825;28;1252;-75
2023/12/22 04:49:08;;;;;;;;;;;;;;;22.29;25.66;95996.63;4959264;28;799;-75
2023/12/22 04:51:33;;;;;;;;;;;;;;;22.85;24.81;95997.19;4944969;28;880;-75
2023/12/22 04:53:59;;;;;;;;;;;;;;;22.87;24.62;95997.47;4963977;28;1212;-75
2023/12/22 04:56:24;;;;;;;;;;;;;;;23.03;24.36;95989.63;5033851;28;860;-75
2023/12/22 04:58:50;;;;;;;;;;;;;;;23.12;24.42;96003.63;5033865;28;1891;-75
2023/12/22 05:01:15;;;;;;;;;;;;;;;22.80;24.46;95999.97;5017270;28;1386;-75
2023/12/22 05:03:41;;;;;;;;;;;;;;;21.98;25.75;95990.81;5033748;28;776;-75
2023/12/22 05:06:07;;;;;;;;;;;;;;;21.81;26.13;95991.38;5033594;28;869;-74
2023/12/22 05:08:32;;;;;;;;;;;;;;;22.05;25.95;95982.66;5033330;28;794;-75
2023/12/22 05:10:58;;;;;;;;;;;;;;;22.13;25.74;95987.94;5033430;28;873;-75
2023/12/22 05:13:23;;;;;;;;;;;;;;;22.36;25.56;95984.06;5055331;28;1118;-75
2023/12/22 05:15:49;;;;;;;;;;;;;;;22.63;25.01;95996.97;5054104;28;769;-75
2023/12/22 05:18:14;;;;;;;;;;;;;;;22.79;24.99;95981.38;5055669;28;1159;-75
2023/12/22 05:20:40;;;;;;;;;;;;;;;23.13;24.28;95976.81;5055158;28;1977;-75
2023/12/22 05:23:05;;;;;;;;;;;;;;;22.94;24.78;95992.63;5055391;28;976;-75
2023/12/22 05:25:31;;;;;;;;;;;;;;;22.98;24.34;95993.19;5038634;28;1151;-75
2023/12/22 05:27:57;;;;;;;;;;;;;;;22.22;25.42;95988.53;5035210;28;1177;-75
2023/12/22 05:30:22;;;;;;;;;;;;;;;21.92;25.79;95992.81;5018872;28;1158;-75
2023/12/22 05:32:48;;;;;;;;;;;;;;;22.21;25.42;95989.81;5015488;28;1137;-75
2023/12/22 05:35:13;;;;;;;;;;;;;;;22.06;25.68;95995.53;4999279;28;1105;-75
2023/12/22 05:37:39;;;;;;;;;;;;;;;22.00;25.72;95985.44;4999134;28;918;-73
2023/12/22 05:40:06;;;;;;;;;;;;;;;22.15;25.79;95985.38;4998732;28;1969;-75
2023/12/22 05:42:32;;;;;;;;;;;;;;;22.38;25.28;95983.56;4999393;28;989;-73
2023/12/22 05:44:58;;;;;;;;;;;;;;;22.98;24.33;95982.63;4989787;28;1065;-73
2023/12/22 05:47:23;;;;;;;;;;;;;;;23.07;24.53;95990.19;4995413;28;1083;-73
2023/12/22 05:49:49;;;;;;;;;;;;;;;22.75;24.66;95995.03;4979557;28;961;-73
2023/12/22 05:52:14;;;;;;;;;;;;;;;22.49;25.11;95992.19;4987065;28;1434;-74
2023/12/22 05:54:40;;;;;;;;;;;;;;;22.12;25.57;95992.78;4959858;28;1704;-74
2023/12/22 05:57:06;;;;;;;;;;;;;;;21.92;25.99;95989.97;4976100;28;1001;-74
2023/12/22 05:59:34;;;;;;;;;;;;;;;22.07;26.12;95997.13;4975936;28;1927;-75
2023/12/22 06:02:00;;;;;;;;;;;;;;;22.21;25.62;95994.72;4975933;28;995;-74
2023/12/22 06:04:26;;;;;;;;;;;;;;;22.58;25.23;95992.00;4975635;28;1052;-74
2023/12/22 06:06:51;;;;;;;;;;;;;;;22.80;24.73;95983.75;4975848;28;1061;-74
2023/12/22 06:09:18;;;;;;;;;;;;;;;22.94;24.58;95992.63;4980632;28;1137;-74
2023/12/22 06:11:44;;;;;;;;;;;;;;;22.88;24.89;95987.69;5015981;28;1174;-75
2023/12/22 06:14:10;;;;;;;;;;;;;;;22.88;24.88;95990.53;5015867;28;1150;-75
2023/12/22 06:16:35;;;;;;;;;;;;;;;22.82;24.83;95983.22;5032511;28;942;-74
2023/12/22 06:19:01;;;;;;;;;;;;;;;22.32;25.66;95983.50;5032505;28;1902;-74
2023/12/22 06:21:26;;;;;;;;;;;;;;;22.19;25.48;95981.06;5016075;28;952;-74
2023/12/22 06:23:52;;;;;;;;;;;;;;;22.05;25.96;95979.06;5032497;28;1019;-73
2023/12/22 06:26:18;;;;;;;;;;;;;;;22.68;25.29;95970.72;5016365;28;1118;-75
2023/12/22 06:28:43;;;;;;;;;;;;;;;22.74;24.81;95963.06;5015910;28;1167;-74
2023/12/22 06:31:18;;;;;;;;;;;;;;;22.65;25.24;95977.41;5031913;28;941;-74
2023/12/22 06:33:43;;;;;;;;;;;;;;;22.93;24.61;95976.91;5034090;28;1199;-74
2023/12/22 06:36:17;;;;;;;;;;;;;;;22.60;25.08;95976.06;5034260;28;999;-74
2023/12/22 06:38:42;;;;;;;;;;;;;;;22.32;25.47;95967.28;5034193;28;944;-74
2023/12/22 06:41:17;;;;;;;;;;;;;;;22.50;25.04;95959.75;5052816;28;1914;-75
2023/12/22 06:43:42;;;;;;;;;;;;;;;22.39;25.39;95959.63;5032605;28;1530;-74
2023/12/22 06:46:14;;;;;;;;;;;;;;;22.30;25.52;95960.56;5036773;28;1891;-74
2023/12/22 06:48:39;;;;;;;;;;;;;;;22.25;25.55;95950.72;5031808;28;1531;-74
2023/12/22 06:51:05;;;;;;;;;;;;;;;22.55;25.46;95945.63;5020565;28;1612;-74
2023/12/22 06:53:31;;;;;;;;;;;;;;;22.82;24.88;95958.50;5020947;28;1160;-74
2023/12/22 06:55:56;;;;;;;;;;;;;;;22.95;24.58;95952.44;5020948;28;983;-74
2023/12/22 06:58:25;;;;;;;;;;;;;;;23.14;24.35;95950.00;5037250;28;1029;-75
2023/12/22 07:00:51;;;;;;;;;;;;;;;22.96;24.66;95950.38;5053412;28;1989;-74
2023/12/22 07:03:17;;;;;;;;;;;;;;;22.56;25.20;95949.22;5053748;28;941;-74
2023/12/22 07:05:43;;;;;;;;;;;;;;;21.84;25.99;95962.06;5036912;28;954;-74
2023/12/22 07:08:08;;;;;;;;;;;;;;;22.14;25.83;95944.94;5037510;28;1047;-74
2023/12/22 07:10:34;;;;;;;;;;;;;;;22.51;25.28;95944.28;5028190;28;965;-74
2023/12/22 07:12:59;;;;;;;;;;;;;;;22.07;25.88;95943.31;5014152;28;969;-74
2023/12/22 07:15:25;;;;;;;;;;;;;;;22.27;25.72;95939.66;5014247;28;931;-73
2023/12/22 07:17:51;;;;;;;;;;;;;;;22.89;24.68;95945.94;4997834;28;941;-74
2023/12/22 07:20:17;;;;;;;;;;;;;;;22.90;24.67;95935.38;4997796;28;1919;-74
2023/12/22 07:22:44;;;;;;;;;;;;;;;22.91;24.89;95926.38;5013927;28;952;-74
2023/12/22 07:25:10;;;;;;;;;;;;;;;22.80;24.61;95935.53;4997746;28;968;-74
2023/12/22 07:27:35;;;;;;;;;;;;;;;21.63;26.30;95932.22;4997696;28;1477;-74
2023/12/22 07:30:01;;;;;;;;;;;;;;;21.58;26.44;95932.91;4997758;28;966;-74
2023/12/22 07:32:26;;;;;;;;;;;;;;;21.96;26.10;95933.88;4997643;28;1103;-74
2023/12/22 07:34:52;;;;;;;;;;;;;;;22.27;25.54;95936.84;4981280;28;1186;-74
2023/12/22 07:37:17;;;;;;;;;;;;;;;21.79;26.27;95934.47;4981173;28;1473;-74
2023/12/22 07:39:45;;;;;;;;;;;;;;;22.16;25.84;95936.72;5016977;28;1906;-74
2023/12/22 07:42:10;;;;;;;;;;;;;;;21.85;26.29;95923.97;5012822;28;1238;-74
2023/12/22 07:44:36;;;;;;;;;;;;;;;22.10;26.05;95927.34;5039814;28;995;-74
2023/12/22 07:47:01;;;;;;;;;;;;;;;22.51;25.26;95932.97;5022270;28;1175;-74
2023/12/22 07:49:27;;;;;;;;;;;;;;;22.78;24.80;95928.81;5038487;28;946;-75
2023/12/22 07:51:53;;;;;;;;;;;;;;;22.88;24.73;95945.16;5039510;28;1192;-74
2023/12/22 07:54:18;;;;;;;;;;;;;;;23.10;24.48;95938.09;5022151;28;1041;-74
2023/12/22 07:56:44;;;;;;;;;;;;;;;22.74;24.81;95937.56;5036666;28;913;-74
2023/12/22 07:59:09;;;;;;;;;;;;;;;22.62;25.22;95939.50;5020641;28;1911;-75
2023/12/22 08:01:35;;;;;;;;;;;;;;;22.57;24.99;95948.72;5020585;28;1414;-74
2023/12/22 08:04:00;;;;;;;;;;;;;;;22.38;25.58;95941.06;5004074;28;1047;-74
2023/12/22 08:06:25;;;;;;;;;;;;;;;22.31;25.65;95942.28;5004134;28;1130;-74
2023/12/22 08:08:51;;;;;;;;;;;;;;;22.27;25.91;95959.50;5020404;28;1166;-74
2023/12/22 08:11:17;;;;;;;;;;;;;;;22.07;25.86;95963.13;5020471;28;1094;-74
2023/12/22 08:13:42;;;;;;;;;;;;;;;22.28;25.59;95966.75;5037046;28;963;-74
2023/12/22 08:16:08;;;;;;;;;;;;;;;22.55;25.24;95973.97;5020011;28;1050;-74
2023/12/22 08:18:33;;;;;;;;;;;;;;;23.01;24.66;95969.50;5036974;28;986;-75
2023/12/22 08:20:59;;;;;;;;;;;;;;;23.26;24.00;95968.66;5036716;28;1918;-74
2023/12/22 08:23:24;;;;;;;;;;;;;;;22.97;24.90;95978.25;5020129;28;993;-74
2023/12/22 08:25:50;;;;;;;;;;;;;;;22.72;25.04;95970.50;4964611;28;1135;-75
2023/12/22 08:28:15;;;;;;;;;;;;;;;22.20;25.78;95967.66;4965069;28;1086;-75
2023/12/22 08:30:41;;;;;;;;;;;;;;;22.32;25.88;95961.59;4964837;28;1095;-74
2023/12/22 08:33:06;;;;;;;;;;;;;;;22.65;25.29;95957.56;4964755;28;990;-75
2023/12/22 08:35:32;;;;;;;;;;;;;;;23.05;24.57;95953.00;4964772;28;1231;-74
2023/12/22 08:37:57;;;;;;;;;;;;;;;23.22;24.36;95953.94;4964748;28;1431;-74
2023/12/22 08:40:25;;;;;;;;;;;;;;;23.10;24.54;95949.44;4980453;28;2262;-75
2023/12/22 08:42:54;;;;;;;;;;;;;;;22.86;24.93;95938.41;4980496;28;967;-75
2023/12/22 08:45:20;;;;;;;;;;;;;;;22.56;25.03;95941.50;4996615;28;980;-74
2023/12/22 08:47:46;;;;;;;;;;;;;;;22.71;25.06;95952.72;4996354;28;1264;-74
2023/12/22 08:50:12;;;;;;;;;;;;;;;22.43;25.34;95946.78;4979981;28;1026;-74
2023/12/22 08:52:38;;;;;;;;;;;;;;;22.32;25.53;95927.59;4980331;28;977;-74
2023/12/22 08:55:05;;;;;;;;;;;;;;;22.28;25.51;95920.63;4996931;28;1099;-74
2023/12/22 08:57:31;;;;;;;;;;;;;;;22.70;25.27;95925.66;4996536;28;1140;-74
2023/12/22 08:59:57;;;;;;;;;;;;;;;22.90;24.67;95924.03;4980161;28;1898;-74
2023/12/22 09:02:22;;;;;;;;;;;;;;;22.88;24.94;95916.03;5001873;28;991;-74
2023/12/22 09:04:48;;;;;;;;;;;;;;;22.97;24.70;95917.91;5019480;28;930;-73
2023/12/22 09:07:13;;;;;;;;;;;;;;;23.02;24.57;95914.34;5035769;28;1022;-74
2023/12/22 09:09:40;;;;;;;;;;;;;;;22.67;25.00;95915.31;5035548;28;912;-74
2023/12/22 09:12:05;;;;;;;;;;;;;;;22.42;25.61;95907.63;5032892;28;930;-74
2023/12/22 09:14:31;;;;;;;;;;;;;;;22.23;25.87;95890.97;5019000;28;1045;-74
2023/12/22 09:16:56;;;;;;;;;;;;;;;22.15;25.78;95892.69;5020308;28;1130;-74
2023/12/22 09:19:22;;;;;;;;;;;;;;;22.33;25.78;95895.19;5035429;28;1894;-73
2023/12/22 09:21:47;;;;;;;;;;;;;;;22.51;25.18;95887.59;5037953;28;885;-74
2023/12/22 09:24:13;;;;;;;;;;;;;;;22.75;25.05;95890.13;5035082;28;903;-73
2023/12/22 09:26:39;;;;;;;;;;;;;;;22.83;24.81;95891.97;5035539;28;1095;-74
2023/12/22 09:29:05;;;;;;;;;;;;;;;22.95;24.72;95872.25;5018887;28;929;-74
2023/12/22 09:31:30;;;;;;;;;;;;;;;22.82;24.81;95879.09;5035340;28;1008;-74
2023/12/22 09:33:57;;;;;;;;;;;;;;;22.47;25.28;95870.06;5019018;28;1099;-74
2023/12/22 09:36:22;;;;;;;;;;;;;;;22.40;25.35;95859.19;5038005;28;1296;-74
2023/12/22 09:38:48;;;;;;;;;;;;;;;22.09;26.02;95860.66;5002444;28;1710;-74
2023/12/22 09:41:13;;;;;;;;;;;;;;;22.40;25.50;95859.19;5021792;28;1985;-74
2023/12/22 09:43:42;;;;;;;;;;;;;;;22.66;24.95;95859.91;5034659;28;1590;-74
2023/12/22 09:46:07;;;;;;;;;;;;;;;22.77;24.90;95845.81;5017842;28;1775;-74
2023/12/22 09:48:35;;;;;;;;;;;;;;;22.93;24.72;95843.63;4977909;28;1584;-74
2023/12/22 09:51:00;;;;;;;;;;;;;;;22.75;24.84;95848.38;4963302;28;1647;-73
2023/12/22 09:53:26;;;;;;;;;;;;;;;22.38;25.38;95856.06;4995615;28;1012;-74
2023/12/22 09:55:51;;;;;;;;;;;;;;;22.23;25.77;95851.31;4995294;28;989;-74
2023/12/22 09:58:17;;;;;;;;;;;;;;;22.30;25.59;95842.34;4995285;28;1038;-73
2023/12/22 10:00:43;;;;;;;;;;;;;;;22.22;25.70;95835.56;4994576;28;1973;-73
2023/12/22 10:03:09;;;;;;;;;;;;;;;22.63;25.13;95826.88;4979028;28;988;-74
2023/12/22 10:05:34;;;;;;;;;;;;;;;22.69;25.18;95822.06;4978966;28;1345;-74
2023/12/22 10:08:00;;;;;;;;;;;;;;;22.91;24.74;95829.19;4979085;28;1161;-75
2023/12/22 10:10:29;;;;;;;;;;;;;;;22.90;24.60;95827.59;4995434;28;1012;-76
2023/12/22 10:12:55;;;;;;;;;;;;;;;22.63;25.03;95815.56;4979241;28;1032;-75
2023/12/22 10:15:23;;;;;;;;;;;;;;;22.27;25.35;95812.19;4995738;28;961;-75
2023/12/22 10:17:52;;;;;;;;;;;;;;;22.14;25.77;95817.50;4979082;28;994;-73
2023/12/22 10:20:17;;;;;;;;;;;;;;;22.42;25.38;95816.94;4974878;28;2159;-73
2023/12/22 10:22:43;;;;;;;;;;;;;;;22.62;25.00;95802.66;4975500;28;992;-73
2023/12/22 10:25:08;;;;;;;;;;;;;;;22.74;24.85;95798.63;4981984;28;1006;-73
2023/12/22 10:27:35;;;;;;;;;;;;;;;22.70;24.80;95792.41;5034322;28;950;-73
2023/12/22 10:30:01;;;;;;;;;;;;;;;22.75;25.10;95785.25;5034044;28;954;-73
2023/12/22 10:32:27;;;;;;;;;;;;;;;22.50;25.21;95784.03;5017880;28;912;-73
2023/12/22 10:34:52;;;;;;;;;;;;;;;22.47;24.94;95771.63;5017412;28;1047;-74
2023/12/22 10:37:18;;;;;;;;;;;;;;;22.41;25.25;95781.38;5001405;28;1196;-73
2023/12/22 10:39:46;;;;;;;;;;;;;;;22.41;25.24;95792.72;5001328;28;1971;-73
2023/12/22 10:42:11;;;;;;;;;;;;;;;22.01;25.95;95783.09;5022746;28;1367;-73
2023/12/22 10:44:37;;;;;;;;;;;;;;;22.67;24.86;95784.91;5029687;28;1535;-74
2023/12/22 10:47:03;;;;;;;;;;;;;;;22.87;24.41;95778.34;5026245;28;1541;-74
2023/12/22 10:49:29;;;;;;;;;;;;;;;22.91;24.75;95772.47;4982948;28;1697;-74
2023/12/22 10:51:54;;;;;;;;;;;;;;;22.92;24.42;95779.69;4968902;28;1562;-75
2023/12/22 10:54:20;;;;;;;;;;;;;;;22.75;24.64;95776.72;4968563;28;1496;-74
2023/12/22 10:56:45;;;;;;;;;;;;;;;22.43;25.38;95784.47;4951556;28;1713;-74
2023/12/22 10:59:11;;;;;;;;;;;;;;;22.19;25.49;95771.44;4961710;28;1907;-74
2023/12/22 11:01:39;;;;;;;;;;;;;;;22.20;25.51;95773.00;4971927;28;1632;-74
2023/12/22 11:04:09;;;;;;;;;;;;;;;22.20;25.52;95775.06;4955107;28;1500;-75
2023/12/22 11:06:35;;;;;;;;;;;;;;;22.70;24.91;95781.09;4954932;28;1578;-75
2023/12/22 11:09:00;;;;;;;;;;;;;;;22.84;24.65;95773.66;4937227;29;1366;-75
2023/12/22 11:11:26;;;;;;;;;;;;;;;22.94;24.48;95777.09;4955314;28;1544;-75
2023/12/22 11:13:51;;;;;;;;;;;;;;;22.87;24.59;95767.78;4958957;28;1622;-75
2023/12/22 11:16:18;;;;;;;;;;;;;;;23.01;24.65;95770.97;4942676;29;1638;-75
2023/12/22 11:18:44;;;;;;;;;;;;;;;22.90;24.76;95770.91;4926915;29;1616;-75
2023/12/22 11:21:09;;;;;;;;;;;;;;;22.61;24.71;95778.44;4958974;29;1915;-75
2023/12/22 11:23:35;;;;;;;;;;;;;;;22.30;25.08;95770.75;4958896;29;1593;-75
2023/12/22 11:26:01;;;;;;;;;;;;;;;22.08;25.48;95765.66;4967000;28;1491;-75
2023/12/22 11:28:26;;;;;;;;;;;;;;;22.06;25.72;95771.03;5017337;28;1612;-75
2023/12/22 11:30:52;;;;;;;;;;;;;;;21.90;25.90;95802.81;5001024;28;1562;-75
2023/12/22 11:33:18;;;;;;;;;;;;;;;22.26;25.36;95776.63;5018044;28;1581;-75
2023/12/22 11:35:43;;;;;;;;;;;;;;;22.41;25.37;95775.72;5017203;28;1604;-75
2023/12/22 11:38:09;;;;;;;;;;;;;;;22.68;24.67;95777.97;5017374;28;1967;-75
2023/12/22 11:40:35;;;;;;;;;;;;;;;22.61;24.98;95761.44;5017288;28;1902;-75
2023/12/22 11:43:00;;;;;;;;;;;;;;;22.85;24.75;95761.84;5017372;28;1620;-75
2023/12/22 11:45:26;;;;;;;;;;;;;;;22.94;24.37;95771.44;5017015;28;1537;-75
2023/12/22 11:47:51;;;;;;;;;;;;;;;22.41;25.01;95764.38;5017134;28;1600;-75
2023/12/22 11:50:32;;;;;;;;;;;;;;;22.49;25.20;95759.81;5032656;28;1051;-75
2023/12/22 11:53:13;;;;;;;;;;;;;;;22.20;25.37;95764.50;5038533;28;1306;-75
2023/12/22 11:56:14;;;;;;;;;;;;;;;22.28;25.29;95751.44;5039177;28;884;-75
2023/12/22 11:58:42;;;;;;;;;;;;;;;22.59;24.85;95742.09;4997605;28;940;-75
2023/12/22 12:01:12;;;;;;;;;;;;;;;22.79;24.71;95749.66;4997756;28;1910;-75
2023/12/22 12:03:40;;;;;;;;;;;;;;;22.63;24.96;95741.84;4997569;28;1126;-75
2023/12/22 12:06:15;;;;;;;;;;;;;;;22.75;24.64;95742.72;4997371;28;1060;-75
2023/12/22 12:08:41;;;;;;;;;;;;;;;22.21;25.49;95734.88;4981334;28;1451;-75
2023/12/22 12:11:07;;;;;;;;;;;;;;;22.23;25.28;95742.91;4981245;28;1219;-74
2023/12/22 12:13:33;;;;;;;;;;;;;;;22.29;25.19;95730.31;4997640;28;954;-74
2023/12/22 12:16:01;;;;;;;;;;;;;;;22.55;25.05;95723.78;4991930;28;1611;-75
2023/12/22 12:18:29;;;;;;;;;;;;;;;22.80;24.71;95722.91;4971864;28;1587;-75
2023/12/22 12:20:55;;;;;;;;;;;;;;;22.65;24.77;95725.13;4960536;28;1907;-76
2023/12/22 12:23:20;;;;;;;;;;;;;;;22.93;24.69;95718.84;4969573;28;1609;-75
2023/12/22 12:25:46;;;;;;;;;;;;;;;23.03;24.31;95711.66;4963297;28;1528;-75
2023/12/22 12:28:12;;;;;;;;;;;;;;;22.57;24.84;95709.88;4952493;28;1476;-75
2023/12/22 12:30:37;;;;;;;;;;;;;;;22.31;25.18;95710.75;4966138;28;1541;-75
2023/12/22 12:33:06;;;;;;;;;;;;;;;22.25;25.33;95706.34;4989236;28;1481;-75
2023/12/22 12:35:32;;;;;;;;;;;;;;;22.30;25.14;95695.03;4983571;28;1645;-76
2023/12/22 12:37:58;;;;;;;;;;;;;;;22.29;25.51;95702.00;4983778;28;1650;-75
2023/12/22 12:40:23;;;;;;;;;;;;;;;22.69;25.02;95700.16;4999667;28;1979;-75
2023/12/22 12:42:49;;;;;;;;;;;;;;;22.66;25.14;95684.16;5016769;28;1090;-75
2023/12/22 12:45:15;;;;;;;;;;;;;;;22.72;24.98;95675.69;5016278;28;1051;-75
2023/12/22 12:47:40;;;;;;;;;;;;;;;22.64;25.07;95692.41;5016261;28;1084;-75
2023/12/22 12:50:06;;;;;;;;;;;;;;;22.84;24.48;95682.94;5016352;28;1327;-75
2023/12/22 12:52:31;;;;;;;;;;;;;;;22.35;25.31;95693.53;5015952;28;948;-75
2023/12/22 12:54:58;;;;;;;;;;;;;;;22.05;25.56;95684.53;4999874;28;1068;-75